TimeCDT,TemperatureF,Dew PointF,Humidity,Sea Level PressureIn,VisibilityMPH,Wind Direction,Wind SpeedMPH,Gust SpeedMPH,PrecipitationIn,Events,Conditions,WindDirDegrees,DateUTC
12:51 AM,72.0,68.0,87,29.93,10.0,Calm,Calm,-,N/A,,Mostly Cloudy,0,2013-06-17 05:51:00
1:47 AM,73.4,68.0,83,29.95,9.0,Calm,Calm,-,N/A,,Mostly Cloudy,0,2013-06-17 06:47:00
1:51 AM,73.0,68.0,84,29.92,9.0,Calm,Calm,-,N/A,,Mostly Cloudy,0,2013-06-17 06:51:00
2:51 AM,72.0,69.1,91,29.92,9.0,SW,3.5,-,N/A,,Scattered Clouds,230,2013-06-17 07:51:00
3:28 AM,71.6,68.0,88,29.96,8.0,WNW,5.8,-,N/A,,Mostly Cloudy,300,2013-06-17 08:28:00
3:51 AM,71.1,68.0,90,29.92,9.0,Calm,Calm,-,N/A,,Mostly Cloudy,0,2013-06-17 08:51:00
4:15 AM,71.6,66.2,83,29.94,10.0,Calm,Calm,-,N/A,,Mostly Cloudy,0,2013-06-17 09:15:00
4:51 AM,71.1,66.9,87,29.89,10.0,North,3.5,-,N/A,,Mostly Cloudy,360,2013-06-17 09:51:00
5:51 AM,72.0,69.1,91,29.91,8.0,Variable,3.5,-,N/A,,Mostly Cloudy,0,2013-06-17 10:51:00
6:32 AM,71.6,69.8,94,29.95,6.0,SE,6.9,-,N/A,,Overcast,130,2013-06-17 11:32:00
6:46 AM,73.4,69.8,88,29.94,6.0,ESE,4.6,-,N/A,,Overcast,110,2013-06-17 11:46:00
6:51 AM,73.0,70.0,90,29.91,6.0,East,4.6,-,N/A,,Overcast,100,2013-06-17 11:51:00
7:51 AM,73.9,70.0,87,29.92,7.0,ESE,6.9,-,N/A,,Mostly Cloudy,110,2013-06-17 12:51:00
8:51 AM,78.1,70.0,76,29.92,9.0,Calm,Calm,-,N/A,,Mostly Cloudy,0,2013-06-17 13:51:00
9:51 AM,80.1,71.1,74,29.90,9.0,NE,6.9,-,N/A,,Overcast,50,2013-06-17 14:51:00
10:51 AM,82.9,72.0,69,29.91,9.0,East,6.9,-,N/A,,Overcast,90,2013-06-17 15:51:00
11:51 AM,84.0,72.0,67,29.91,9.0,ENE,3.5,-,N/A,,Overcast,60,2013-06-17 16:51:00
12:51 PM,84.9,72.0,65,29.91,10.0,North,5.8,-,N/A,,Overcast,10,2013-06-17 17:51:00
1:51 PM,86.0,71.1,61,29.87,10.0,NE,4.6,-,N/A,,Overcast,40,2013-06-17 18:51:00
2:28 PM,84.2,71.6,66,29.88,10.0,NNW,10.4,-,N/A,Thunderstorm,Thunderstorm,340,2013-06-17 19:28:00
2:51 PM,81.0,69.1,67,29.86,9.0,SSW,8.1,-,0.00,Rain-Thunderstorm,Light Thunderstorms and Rain,200,2013-06-17 19:51:00
3:13 PM,75.2,66.2,73,29.91,6.0,SW,20.7,31.1,0.01,Rain-Thunderstorm,Light Thunderstorms and Rain,230,2013-06-17 20:13:00
3:28 PM,73.4,68.0,83,29.90,7.0,SSE,12.7,27.6,0.04,Rain-Thunderstorm,Light Thunderstorms and Rain,160,2013-06-17 20:28:00
3:51 PM,71.1,66.9,87,29.89,8.0,SSE,13.8,25.3,0.06,Rain-Thunderstorm,Light Thunderstorms and Rain,160,2013-06-17 20:51:00
4:18 PM,71.6,66.2,83,29.93,10.0,ESE,20.7,-,0.00,Rain,Light Rain,120,2013-06-17 21:18:00
4:48 PM,69.8,66.2,88,29.93,9.0,SE,10.4,20.7,0.03,Rain-Thunderstorm,Light Thunderstorms and Rain,130,2013-06-17 21:48:00
4:51 PM,70.0,66.0,87,29.91,7.0,SSE,4.6,20.7,0.03,Rain-Thunderstorm,Light Thunderstorms and Rain,150,2013-06-17 21:51:00
4:58 PM,69.8,66.2,88,29.93,4.0,South,9.2,-,0.06,Rain-Thunderstorm,Light Thunderstorms and Rain,180,2013-06-17 21:58:00
5:51 PM,70.0,66.0,87,29.91,5.0,South,15.0,19.6,0.14,Rain,Rain,180,2013-06-17 22:51:00
5:57 PM,69.8,66.2,88,29.94,7.0,South,12.7,-,0.00,Rain-Thunderstorm,Light Thunderstorms and Rain,170,2013-06-17 22:57:00
6:31 PM,69.8,64.4,83,29.94,7.0,South,12.7,-,0.02,Rain,Light Rain,170,2013-06-17 23:31:00
6:51 PM,70.0,64.9,84,29.93,7.0,South,5.8,-,0.03,Rain,Light Rain,190,2013-06-17 23:51:00
7:51 PM,70.0,64.0,81,29.93,10.0,South,6.9,-,0.02,,Overcast,190,2013-06-18 00:51:00
8:51 PM,69.1,64.0,84,29.93,10.0,Calm,Calm,-,N/A,,Mostly Cloudy,0,2013-06-18 01:51:00
9:51 PM,69.1,63.0,81,29.93,10.0,NW,3.5,-,N/A,,Overcast,310,2013-06-18 02:51:00
10:51 PM,69.1,64.0,84,29.92,10.0,NW,3.5,-,N/A,,Mostly Cloudy,310,2013-06-18 03:51:00
11:51 PM,68.0,64.0,87,29.91,10.0,WSW,3.5,-,N/A,,Mostly Cloudy,240,2013-06-18 04:51:00